SHPE weather

Pelluco Heliport
Puerto Montt, Los Lagos Region, Chile

Public forecast

Using degrees Celsius for public forecast. Weather courtesy of forecast.io.

METAR (pilot weather report)

Closest report is El Tepual Airport, 9.0 nm (16.8 km) WNW. Retrieved 2019/04/24 01:00 UTC (34 minutes ago):

SCTE 240100Z 25005KT CAVOK 07/06 Q1017 NOSIG

TAF (pilot weather forecast)

Closest forecast is El Tepual Airport, 9.0 nm (16.8 km) WNW. Retrieved 2019/04/24 00:00 UTC (2 hours ago):

TAF COR SCTE 232354Z 2400/2500 18008KT CAVOK TN04/2410Z TX15/2420Z BECMG 2405/2407 17005KT BKN015 PROB40 TEMPO 2407/2412 VRB03KT 0600 FG BKN002 BECMG 2414/2416 CAVOK